createdAt,value
2018-06-29T00:00:10.655Z,99.99
2018-06-29T00:01:11.234Z,99.99
2018-06-29T00:02:11.873Z,99.99
2018-06-29T00:03:12.457Z,99.99
2018-06-29T00:04:13.040Z,99.99
2018-06-29T00:05:13.626Z,99.99
2018-06-29T00:06:14.212Z,99.99
2018-06-29T00:07:14.848Z,99.99
2018-06-29T00:08:15.433Z,99.99
2018-06-29T00:09:16.018Z,99.99
2018-06-29T00:10:16.601Z,99.99
2018-06-29T00:11:17.238Z,99.99
2018-06-29T00:12:17.821Z,99.99
2018-06-29T00:13:18.409Z,99.99
2018-06-29T00:14:18.993Z,99.99
2018-06-29T00:15:19.571Z,99.99
2018-06-29T00:16:20.161Z,99.99
2018-06-29T00:17:20.743Z,99.99
2018-06-29T00:18:21.328Z,99.99
2018-06-29T00:19:21.908Z,99.99
2018-06-29T00:20:22.546Z,99.99
2018-06-29T00:21:23.125Z,99.99
2018-06-29T00:22:23.717Z,99.99
2018-06-29T00:23:24.344Z,99.99
2018-06-29T00:24:24.928Z,99.99
2018-06-29T00:25:25.519Z,99.99
2018-06-29T00:26:26.104Z,99.99
2018-06-29T00:27:26.686Z,99.99
2018-06-29T00:28:27.276Z,99.99
2018-06-29T00:29:27.860Z,99.99
2018-06-29T00:30:28.449Z,99.99
2018-06-29T00:31:29.029Z,99.99
2018-06-29T00:32:29.615Z,99.99
2018-06-29T00:33:30.210Z,99.99
2018-06-29T00:34:30.796Z,99.99
2018-06-29T00:35:31.378Z,99.99
2018-06-29T00:36:31.967Z,99.99
2018-06-29T00:37:32.596Z,99.99
2018-06-29T00:38:33.294Z,99.99
2018-06-29T00:39:33.814Z,99.99
2018-06-29T00:40:34.403Z,99.99
2018-06-29T00:41:35.039Z,99.99
2018-06-29T00:42:35.623Z,99.99
2018-06-29T00:43:36.213Z,99.99
2018-06-29T00:44:36.794Z,99.99
2018-06-29T00:45:37.379Z,99.99
2018-06-29T00:46:37.967Z,99.99
2018-06-29T00:47:38.547Z,99.99
2018-06-29T00:48:39.132Z,99.99
2018-06-29T00:49:39.724Z,99.99
2018-06-29T00:50:40.301Z,99.99
2018-06-29T00:51:40.889Z,99.99
2018-06-29T00:52:41.475Z,99.99
2018-06-29T00:53:42.059Z,99.99
2018-06-29T00:54:42.756Z,99.99
2018-06-29T00:55:43.230Z,99.99
2018-06-29T00:56:43.862Z,99.99
2018-06-29T00:57:44.501Z,99.99
2018-06-29T00:58:45.078Z,99.99
2018-06-29T00:59:45.667Z,99.99
2018-06-29T01:00:46.254Z,99.99
2018-06-29T01:01:46.990Z,99.99
2018-06-29T01:02:47.577Z,99.99
2018-06-29T01:03:48.210Z,99.99
2018-06-29T01:04:48.797Z,99.99
2018-06-29T01:05:49.383Z,99.99
2018-06-29T01:06:49.967Z,99.99
2018-06-29T01:07:50.552Z,99.99
2018-06-29T01:08:51.132Z,99.99
2018-06-29T01:09:51.721Z,99.99
2018-06-29T01:10:52.301Z,99.99
2018-06-29T01:11:52.885Z,99.99
2018-06-29T01:12:53.526Z,99.99
2018-06-29T01:13:54.153Z,99.99
2018-06-29T01:14:54.733Z,99.99
2018-06-29T01:15:55.322Z,99.99
2018-06-29T01:16:55.957Z,99.99
2018-06-29T01:17:56.543Z,99.99
2018-06-29T01:18:57.126Z,99.99
2018-06-29T01:19:57.759Z,99.99
2018-06-29T01:20:58.339Z,99.99
2018-06-29T01:21:58.929Z,99.99
2018-06-29T01:22:59.514Z,99.99
2018-06-29T01:24:00.101Z,99.99
2018-06-29T01:25:00.683Z,99.99
2018-06-29T01:26:01.271Z,99.99
2018-06-29T01:27:01.856Z,99.99
2018-06-29T01:28:02.441Z,99.99
2018-06-29T01:29:03.031Z,99.99
2018-06-29T01:30:03.660Z,99.99
2018-06-29T01:31:04.292Z,99.99
2018-06-29T01:32:04.887Z,99.99
2018-06-29T01:33:05.565Z,99.99
2018-06-29T01:34:06.155Z,99.99
2018-06-29T01:35:06.730Z,99.99
2018-06-29T01:36:07.316Z,99.99
2018-06-29T01:37:07.897Z,99.99
2018-06-29T01:38:08.485Z,99.99
2018-06-29T01:39:09.070Z,99.99
2018-06-29T01:40:09.657Z,99.99
2018-06-29T01:41:10.291Z,99.99
2018-06-29T01:42:10.877Z,99.99
2018-06-29T01:43:11.510Z,99.99
2018-06-29T01:44:12.095Z,99.99
2018-06-29T01:45:12.673Z,99.99
2018-06-29T01:46:13.308Z,99.99
2018-06-29T01:47:13.889Z,99.99
2018-06-29T01:48:14.523Z,99.99
2018-06-29T01:49:15.109Z,99.99
2018-06-29T01:50:15.692Z,99.99
2018-06-29T01:51:16.323Z,99.99
2018-06-29T01:52:16.953Z,99.99
2018-06-29T01:53:17.492Z,99.99
2018-06-29T01:54:18.076Z,99.99
2018-06-29T01:55:18.658Z,99.99
2018-06-29T01:56:19.244Z,99.99
2018-06-29T01:57:19.832Z,99.99
2018-06-29T01:58:20.410Z,99.99
2018-06-29T01:59:20.993Z,99.99
2018-06-29T02:00:21.581Z,99.99
2018-06-29T02:01:22.154Z,99.99
2018-06-29T02:02:22.740Z,99.99
2018-06-29T02:03:23.326Z,99.99
2018-06-29T02:04:23.959Z,99.99
2018-06-29T02:05:24.549Z,99.99
2018-06-29T02:06:25.132Z,99.99
2018-06-29T02:07:25.768Z,99.99
2018-06-29T02:08:26.353Z,99.99
2018-06-29T02:09:26.985Z,99.99
2018-06-29T02:10:27.573Z,99.99
2018-06-29T02:11:28.160Z,99.99
2018-06-29T02:12:28.743Z,99.99
2018-06-29T02:13:29.329Z,99.99
2018-06-29T02:14:29.909Z,99.99
2018-06-29T02:15:30.503Z,99.99
2018-06-29T02:16:31.134Z,99.99
2018-06-29T02:17:31.770Z,99.99
2018-06-29T02:18:32.356Z,99.99
2018-06-29T02:19:32.941Z,99.99
2018-06-29T02:20:33.569Z,99.99
2018-06-29T02:21:34.159Z,99.99
2018-06-29T02:22:34.739Z,99.99
2018-06-29T02:23:35.318Z,99.99
2018-06-29T02:24:35.902Z,99.99
2018-06-29T02:25:41.541Z,99.99
2018-06-29T02:26:42.172Z,99.99
2018-06-29T02:27:42.811Z,99.99
2018-06-29T02:28:43.345Z,99.99
2018-06-29T02:29:43.924Z,99.99
2018-06-29T02:30:44.702Z,99.99
2018-06-29T02:31:45.145Z,99.99
2018-06-29T02:32:45.731Z,99.99
2018-06-29T02:33:46.312Z,99.99
2018-06-29T02:34:46.893Z,99.99
2018-06-29T02:35:47.534Z,99.99
2018-06-29T02:36:48.118Z,99.99
2018-06-29T02:37:48.747Z,99.99
2018-06-29T02:38:49.330Z,99.99
2018-06-29T02:39:49.910Z,99.99
2018-06-29T02:40:50.499Z,99.99
2018-06-29T02:41:51.085Z,99.99
2018-06-29T02:42:51.720Z,99.99
2018-06-29T02:43:52.304Z,99.99
2018-06-29T02:44:52.897Z,99.99
2018-06-29T02:45:53.521Z,99.99
2018-06-29T02:46:54.113Z,99.99
2018-06-29T02:47:54.693Z,99.99
2018-06-29T02:48:55.277Z,99.99
2018-06-29T02:49:55.861Z,99.99
2018-06-29T02:50:56.496Z,99.99
2018-06-29T02:51:57.083Z,99.99
2018-06-29T02:52:57.668Z,99.99
2018-06-29T02:53:58.303Z,99.99
2018-06-29T02:54:58.885Z,99.99
2018-06-29T02:55:59.475Z,99.99
2018-06-29T02:57:00.060Z,99.99
2018-06-29T02:58:00.699Z,99.99
2018-06-29T02:59:01.280Z,99.99
2018-06-29T03:00:01.871Z,99.99
2018-06-29T03:01:02.442Z,99.99
2018-06-29T03:02:03.032Z,99.99
2018-06-29T03:03:03.618Z,99.99
2018-06-29T03:04:04.198Z,99.99
2018-06-29T03:05:04.782Z,99.99
2018-06-29T03:06:05.369Z,99.99
2018-06-29T03:07:05.959Z,99.99
2018-06-29T03:08:06.590Z,99.99
2018-06-29T03:09:07.227Z,99.99
2018-06-29T03:10:07.859Z,99.99
2018-06-29T03:11:08.447Z,99.99
2018-06-29T03:12:09.040Z,99.99
2018-06-29T03:13:09.616Z,99.99
2018-06-29T03:14:10.253Z,99.99
2018-06-29T03:15:10.900Z,99.99
2018-06-29T03:16:11.427Z,99.99
2018-06-29T03:17:12.005Z,99.99
2018-06-29T03:18:12.594Z,99.99
2018-06-29T03:19:13.180Z,99.99
2018-06-29T03:20:13.765Z,99.99
2018-06-29T03:21:14.361Z,99.99
2018-06-29T03:22:14.981Z,99.99
2018-06-29T03:23:15.556Z,99.99
2018-06-29T03:24:16.144Z,99.99
2018-06-29T03:25:16.821Z,99.99
2018-06-29T03:26:17.364Z,99.99
2018-06-29T03:27:17.945Z,99.99
2018-06-29T03:28:18.535Z,99.99
2018-06-29T03:29:19.166Z,99.99
2018-06-29T03:30:19.751Z,99.99
2018-06-29T03:31:20.338Z,99.99
2018-06-29T03:32:20.925Z,99.99
2018-06-29T03:33:21.505Z,99.99
2018-06-29T03:34:22.144Z,99.99
2018-06-29T03:35:22.732Z,99.99
2018-06-29T03:36:23.308Z,99.99
2018-06-29T03:37:23.941Z,99.99
2018-06-29T03:38:24.531Z,99.99
2018-06-29T03:39:25.169Z,99.99
2018-06-29T03:40:25.780Z,99.99
2018-06-29T03:41:26.328Z,99.99
2018-06-29T03:42:26.910Z,99.99
2018-06-29T03:43:27.499Z,99.99
2018-06-29T03:44:28.129Z,99.99
2018-06-29T03:45:28.807Z,99.99
2018-06-29T03:46:29.389Z,99.99
2018-06-29T03:47:29.975Z,99.99
2018-06-29T03:48:30.561Z,99.99
2018-06-29T03:49:31.174Z,99.99
2018-06-29T03:50:31.729Z,99.99
2018-06-29T03:51:32.311Z,99.99
2018-06-29T03:52:32.897Z,99.99
2018-06-29T03:53:33.486Z,99.99
2018-06-29T03:54:34.066Z,99.99
2018-06-29T03:55:34.651Z,99.99
2018-06-29T03:56:35.287Z,99.99
2018-06-29T03:57:35.874Z,99.99
2018-06-29T03:58:36.456Z,99.99
2018-06-29T03:59:37.034Z,99.99
2018-06-29T04:00:37.613Z,99.99
2018-06-29T04:01:38.258Z,99.99
2018-06-29T04:02:38.838Z,99.99
2018-06-29T04:03:39.423Z,99.99
2018-06-29T04:04:40.009Z,99.99
2018-06-29T04:05:40.633Z,99.99
2018-06-29T04:06:41.222Z,99.99
2018-06-29T04:07:41.813Z,99.99
2018-06-29T04:08:42.439Z,99.99
2018-06-29T04:09:43.025Z,99.99
2018-06-29T04:10:43.650Z,99.99
2018-06-29T04:11:44.291Z,99.99
2018-06-29T04:12:44.867Z,99.99
2018-06-29T04:13:45.540Z,99.99
2018-06-29T04:14:46.124Z,99.99
2018-06-29T04:15:46.707Z,99.99
2018-06-29T04:16:47.291Z,99.99
2018-06-29T04:17:47.870Z,99.99
2018-06-29T04:18:48.509Z,99.99
2018-06-29T04:19:49.092Z,99.99
2018-06-29T04:20:49.723Z,99.99
2018-06-29T04:21:50.309Z,99.99
2018-06-29T04:22:50.895Z,99.99
2018-06-29T04:23:51.473Z,99.99
2018-06-29T04:24:52.054Z,99.99
2018-06-29T04:25:52.638Z,99.99
2018-06-29T04:26:53.275Z,99.99
2018-06-29T04:27:53.908Z,99.99
2018-06-29T04:28:54.492Z,99.99
2018-06-29T04:29:55.077Z,99.99
2018-06-29T04:30:55.704Z,99.99
2018-06-29T04:31:56.292Z,99.99
2018-06-29T04:32:56.876Z,99.99
2018-06-29T04:33:57.459Z,99.99
2018-06-29T04:34:58.091Z,99.99
2018-06-29T04:35:58.678Z,99.99
2018-06-29T04:36:59.263Z,99.99
2018-06-29T04:37:59.840Z,99.99
2018-06-29T04:39:00.428Z,99.99
2018-06-29T04:40:01.016Z,99.99
2018-06-29T04:41:01.599Z,99.99
2018-06-29T04:42:02.276Z,99.99
2018-06-29T04:43:02.863Z,99.99
2018-06-29T04:44:03.446Z,99.99
2018-06-29T04:45:04.035Z,99.99
2018-06-29T04:46:04.620Z,99.99
2018-06-29T04:47:05.260Z,99.99
2018-06-29T04:48:05.844Z,99.99
2018-06-29T04:49:06.422Z,99.99
2018-06-29T04:50:07.011Z,99.99
2018-06-29T04:51:07.645Z,99.99
2018-06-29T04:52:08.229Z,99.99
2018-06-29T04:53:08.809Z,99.99
2018-06-29T04:54:09.388Z,99.99
2018-06-29T04:55:09.973Z,99.99
2018-06-29T04:56:10.562Z,99.99
2018-06-29T04:57:11.185Z,99.99
2018-06-29T04:58:11.764Z,99.99
2018-06-29T04:59:12.377Z,99.99
2018-06-29T05:00:12.941Z,99.99
2018-06-29T05:01:13.669Z,99.99
2018-06-29T05:02:14.253Z,99.99
2018-06-29T05:03:14.840Z,99.99
2018-06-29T05:04:15.468Z,99.99
2018-06-29T05:05:16.107Z,99.99
2018-06-29T05:06:16.686Z,99.99
2018-06-29T05:07:17.268Z,99.99
2018-06-29T05:08:17.857Z,99.99
2018-06-29T05:09:18.443Z,99.99
2018-06-29T05:10:19.080Z,99.99
2018-06-29T05:11:19.664Z,99.99
2018-06-29T05:12:20.246Z,99.99
2018-06-29T05:13:20.832Z,99.99
2018-06-29T05:14:21.413Z,99.99
2018-06-29T05:15:22.004Z,99.99
2018-06-29T05:16:22.575Z,99.99
2018-06-29T05:17:23.163Z,99.99
2018-06-29T05:18:23.795Z,99.99
2018-06-29T05:19:24.382Z,99.99
2018-06-29T05:20:24.964Z,99.99
2018-06-29T05:21:25.605Z,99.99
2018-06-29T05:22:26.238Z,99.99
2018-06-29T05:23:26.823Z,99.99
2018-06-29T05:24:27.401Z,99.99
2018-06-29T05:25:27.992Z,99.99
2018-06-29T05:26:28.571Z,99.99
2018-06-29T05:27:29.214Z,99.99
2018-06-29T05:28:29.896Z,99.99
2018-06-29T05:29:30.477Z,99.99
2018-06-29T05:30:31.262Z,99.99
2018-06-29T05:31:31.894Z,99.99
2018-06-29T05:32:32.478Z,99.99
2018-06-29T05:33:33.066Z,99.99
2018-06-29T05:34:33.652Z,99.99
2018-06-29T05:35:34.289Z,99.99
2018-06-29T05:36:34.877Z,99.99
2018-06-29T05:37:35.454Z,99.99
2018-06-29T05:38:36.042Z,99.99
2018-06-29T05:39:36.618Z,99.99
2018-06-29T05:40:37.201Z,99.99
2018-06-29T05:41:37.794Z,99.99
2018-06-29T05:42:38.402Z,99.99
2018-06-29T05:43:38.952Z,99.99
2018-06-29T05:44:39.642Z,99.99
2018-06-29T05:45:40.119Z,99.99
2018-06-29T05:46:40.705Z,99.99
2018-06-29T05:47:41.290Z,99.99
2018-06-29T05:48:41.878Z,99.99
2018-06-29T05:49:42.511Z,99.99
2018-06-29T05:50:43.096Z,99.99
2018-06-29T05:51:43.693Z,99.99
2018-06-29T05:52:44.456Z,99.99
2018-06-29T05:53:45.032Z,99.99
2018-06-29T05:54:45.619Z,99.99
2018-06-29T05:55:46.200Z,99.99
2018-06-29T05:56:46.789Z,99.99
2018-06-29T05:57:47.374Z,99.99
2018-06-29T05:58:48.005Z,99.99
2018-06-29T05:59:48.637Z,99.99
2018-06-29T06:00:49.221Z,99.99
2018-06-29T06:01:49.806Z,99.99
2018-06-29T06:02:50.392Z,99.99
2018-06-29T06:03:50.976Z,99.99
2018-06-29T06:04:51.558Z,99.99
2018-06-29T06:05:52.147Z,99.99
2018-06-29T06:06:52.729Z,99.99
2018-06-29T06:07:53.316Z,99.99
2018-06-29T06:08:53.956Z,99.99
2018-06-29T06:09:54.536Z,99.99
2018-06-29T06:10:55.124Z,99.99
2018-06-29T06:11:55.754Z,99.99
2018-06-29T06:12:56.340Z,99.99
2018-06-29T06:13:56.926Z,99.99
2018-06-29T06:14:57.511Z,99.99
2018-06-29T06:15:58.133Z,99.99
2018-06-29T06:16:58.679Z,99.99
2018-06-29T06:17:59.264Z,99.99
2018-06-29T06:18:59.898Z,99.99
2018-06-29T06:20:00.479Z,99.99
2018-06-29T06:21:01.067Z,99.99
2018-06-29T06:22:01.673Z,99.99
2018-06-29T06:23:02.278Z,99.99
2018-06-29T06:24:02.868Z,99.99
2018-06-29T06:25:03.448Z,99.99
2018-06-29T06:26:04.081Z,99.99
2018-06-29T06:27:04.675Z,99.99
2018-06-29T06:28:05.300Z,99.99
2018-06-29T06:29:05.888Z,99.99
2018-06-29T06:30:06.471Z,99.99
2018-06-29T06:31:07.098Z,99.99
2018-06-29T06:32:07.683Z,99.99
2018-06-29T06:33:08.280Z,99.99
2018-06-29T06:34:08.900Z,99.99
2018-06-29T06:35:09.532Z,99.99
2018-06-29T06:36:10.119Z,99.99
2018-06-29T06:37:10.706Z,99.99
2018-06-29T06:38:11.288Z,99.99
2018-06-29T06:39:11.873Z,99.99
2018-06-29T06:40:12.459Z,99.99
2018-06-29T06:41:13.046Z,99.99
2018-06-29T06:42:13.631Z,99.99
2018-06-29T06:43:14.217Z,99.99
2018-06-29T06:44:14.801Z,99.99
2018-06-29T06:45:15.442Z,99.99
2018-06-29T06:46:16.024Z,99.99
2018-06-29T06:47:16.652Z,99.99
2018-06-29T06:48:17.240Z,99.99
2018-06-29T06:49:17.822Z,99.99
2018-06-29T06:50:18.446Z,99.99
2018-06-29T06:51:19.030Z,99.99
2018-06-29T06:52:19.610Z,99.99
2018-06-29T06:53:20.198Z,99.99
2018-06-29T06:54:20.789Z,99.99
2018-06-29T06:55:21.413Z,99.99
2018-06-29T06:56:22.047Z,99.99
2018-06-29T06:57:22.634Z,99.99
2018-06-29T06:58:23.213Z,99.99
2018-06-29T06:59:23.853Z,99.99
2018-06-29T07:00:24.395Z,99.99
2018-06-29T07:01:25.015Z,99.99
2018-06-29T07:02:25.604Z,99.99
2018-06-29T07:03:26.190Z,99.99
2018-06-29T07:04:26.820Z,99.99
2018-06-29T07:05:27.459Z,99.99
2018-06-29T07:06:28.039Z,99.99
2018-06-29T07:07:28.626Z,99.99
2018-06-29T07:08:29.218Z,99.99
2018-06-29T07:09:29.798Z,99.99
2018-06-29T07:10:30.381Z,99.99
2018-06-29T07:11:30.971Z,99.99
2018-06-29T07:12:31.565Z,99.99
2018-06-29T07:13:32.189Z,99.99
2018-06-29T07:14:32.776Z,99.99
2018-06-29T07:15:33.454Z,99.99
2018-06-29T07:16:34.044Z,99.99
2018-06-29T07:17:34.630Z,99.99
2018-06-29T07:18:35.267Z,99.99
2018-06-29T07:19:35.854Z,99.99
2018-06-29T07:20:36.434Z,99.99
2018-06-29T07:21:37.022Z,99.99
2018-06-29T07:22:37.606Z,99.99
2018-06-29T07:23:38.244Z,99.99
2018-06-29T07:24:38.877Z,99.99
2018-06-29T07:25:39.465Z,99.99
2018-06-29T07:26:40.044Z,99.99
2018-06-29T07:27:40.630Z,99.99
2018-06-29T07:28:41.216Z,99.99
2018-06-29T07:29:41.800Z,99.99
2018-06-29T07:30:42.387Z,99.99
2018-06-29T07:31:42.974Z,99.99
2018-06-29T07:32:43.558Z,99.99
2018-06-29T07:33:44.138Z,99.99
2018-06-29T07:34:44.728Z,99.99
2018-06-29T07:35:45.314Z,99.99
2018-06-29T07:36:45.899Z,99.99
2018-06-29T07:37:46.485Z,99.99
2018-06-29T07:38:47.122Z,99.99
2018-06-29T07:39:47.697Z,99.99
2018-06-29T07:40:48.281Z,99.99
2018-06-29T07:41:48.920Z,99.99
2018-06-29T07:42:49.558Z,99.99
2018-06-29T07:43:50.137Z,99.99
2018-06-29T07:44:50.725Z,99.99
2018-06-29T07:45:51.311Z,99.99
2018-06-29T07:46:51.897Z,99.99
2018-06-29T07:47:52.481Z,99.99
2018-06-29T07:48:53.064Z,99.99
2018-06-29T07:49:53.650Z,99.99
2018-06-29T07:50:54.236Z,99.99
2018-06-29T07:51:54.819Z,99.99
2018-06-29T07:52:55.460Z,99.99
2018-06-29T07:53:56.091Z,99.99
2018-06-29T07:54:56.677Z,99.99
2018-06-29T07:55:57.262Z,99.99
2018-06-29T07:56:57.848Z,99.99
2018-06-29T07:57:58.435Z,99.99
2018-06-29T07:58:59.067Z,99.99
2018-06-29T07:59:59.651Z,99.99
2018-06-29T08:01:00.287Z,99.99
2018-06-29T08:02:00.869Z,99.99
2018-06-29T08:03:01.455Z,99.99
2018-06-29T08:04:02.041Z,99.99
2018-06-29T08:05:02.620Z,99.99
2018-06-29T08:06:03.207Z,99.99
2018-06-29T08:07:03.792Z,99.99
2018-06-29T08:08:04.377Z,99.99
2018-06-29T08:09:04.962Z,99.99
2018-06-29T08:10:05.553Z,99.99
2018-06-29T08:11:06.180Z,99.99
2018-06-29T08:12:06.770Z,99.99
2018-06-29T08:13:07.353Z,99.99
2018-06-29T08:14:07.939Z,99.99
2018-06-29T08:15:08.565Z,99.99
2018-06-29T08:16:09.148Z,99.99
2018-06-29T08:17:09.737Z,99.99
2018-06-29T08:18:10.322Z,99.99
2018-06-29T08:19:10.903Z,99.99
2018-06-29T08:20:11.493Z,99.99
2018-06-29T08:21:12.078Z,99.99
2018-06-29T08:22:12.711Z,99.99
2018-06-29T08:23:13.303Z,99.99
2018-06-29T08:24:13.954Z,99.99
2018-06-29T08:25:14.512Z,99.99
2018-06-29T08:26:15.094Z,99.99
2018-06-29T08:27:15.678Z,99.99
2018-06-29T08:28:16.263Z,99.99
2018-06-29T08:29:16.850Z,99.99
2018-06-29T08:30:17.435Z,99.99
2018-06-29T08:31:18.021Z,99.99
2018-06-29T08:32:18.656Z,99.99
2018-06-29T08:33:19.241Z,99.99
2018-06-29T08:34:19.829Z,99.99
2018-06-29T08:35:20.410Z,99.99
2018-06-29T08:36:21.043Z,99.99
2018-06-29T08:37:21.632Z,95.79
2018-06-29T08:38:22.372Z,93.85
2018-06-29T08:39:22.962Z,96.46
2018-06-29T08:40:23.550Z,95.25
2018-06-29T08:41:24.143Z,94.68
2018-06-29T08:42:24.782Z,93.62
2018-06-29T08:43:25.371Z,92.36
2018-06-29T08:44:26.012Z,91.59
2018-06-29T08:45:26.597Z,92.55
2018-06-29T08:46:27.187Z,92.36
2018-06-29T08:47:27.777Z,92.84
2018-06-29T08:48:28.362Z,91.30
2018-06-29T08:49:29.088Z,98.25
2018-06-29T08:50:29.631Z,92.65
2018-06-29T08:51:30.220Z,92.07
2018-06-29T08:52:30.812Z,92.46
2018-06-29T08:53:31.394Z,91.49
2018-06-29T08:54:31.988Z,91.30
2018-06-29T08:55:32.576Z,90.86
2018-06-29T08:56:33.171Z,90.67
2018-06-29T08:57:33.804Z,90.86
2018-06-29T08:58:34.396Z,91.05
2018-06-29T08:59:35.038Z,91.53
2018-06-29T09:00:35.626Z,91.35
2018-06-29T09:01:36.216Z,91.63
2018-06-29T09:02:36.802Z,92.31
2018-06-29T09:03:37.391Z,93.08
2018-06-29T09:04:37.978Z,92.98
2018-06-29T09:05:38.562Z,93.56
2018-06-29T09:06:39.147Z,94.04
2018-06-29T09:07:39.741Z,94.72
2018-06-29T09:08:40.424Z,94.72
2018-06-29T09:09:41.010Z,89.79
2018-06-29T09:10:41.599Z,89.99
2018-06-29T09:11:42.190Z,88.73
2018-06-29T09:12:42.784Z,87.96
2018-06-29T09:13:43.375Z,88.87
2018-06-29T09:14:43.963Z,88.25
2018-06-29T09:15:44.604Z,89.26
2018-06-29T09:16:45.189Z,88.49
2018-06-29T09:17:45.831Z,88.68
2018-06-29T09:18:46.421Z,88.59
2018-06-29T09:19:47.009Z,88.97
2018-06-29T09:20:47.600Z,88.59
2018-06-29T09:21:48.185Z,88.68
2018-06-29T09:22:48.777Z,87.71
2018-06-29T09:23:49.365Z,87.52
2018-06-29T09:24:50.007Z,87.52
2018-06-29T09:25:50.591Z,87.71
2018-06-29T09:26:51.190Z,87.52
2018-06-29T09:27:51.780Z,88.20
2018-06-29T09:28:52.371Z,88.49
2018-06-29T09:29:53.011Z,88.29
2018-06-29T09:30:53.553Z,88.49
2018-06-29T09:31:54.144Z,88.39
2018-06-29T09:32:54.736Z,88.20
2018-06-29T09:33:55.381Z,88.34
2018-06-29T09:34:56.022Z,89.26
2018-06-29T09:35:56.662Z,88.01
2018-06-29T09:36:57.250Z,86.85
2018-06-29T09:37:57.845Z,87.23
2018-06-29T09:38:58.440Z,87.66
2018-06-29T09:39:59.077Z,86.60
2018-06-29T09:40:59.669Z,86.89
2018-06-29T09:42:00.259Z,87.76
2018-06-29T09:43:00.850Z,87.95
2018-06-29T09:44:01.445Z,87.47
2018-06-29T09:45:02.081Z,88.05
2018-06-29T09:46:02.669Z,88.15
2018-06-29T09:47:03.256Z,87.37
2018-06-29T09:48:03.938Z,88.53
2018-06-29T09:49:04.487Z,88.20
2018-06-29T09:50:05.076Z,87.76
2018-06-29T09:51:05.712Z,88.01
2018-06-29T09:52:06.303Z,88.10
2018-06-29T09:53:06.897Z,88.10
2018-06-29T09:54:07.616Z,88.78
2018-06-29T09:55:08.136Z,88.59
2018-06-29T09:56:08.720Z,88.39
2018-06-29T09:57:09.317Z,88.34
2018-06-29T09:58:09.905Z,88.24
2018-06-29T09:59:10.575Z,88.34
2018-06-29T10:00:11.137Z,88.43
2018-06-29T10:01:11.827Z,88.05
2018-06-29T10:02:12.323Z,86.79
2018-06-29T10:03:12.911Z,87.76
2018-06-29T10:04:13.505Z,88.24
2018-06-29T10:05:14.135Z,88.82
2018-06-29T10:06:14.726Z,88.53
2018-06-29T10:07:15.317Z,88.43
2018-06-29T10:08:15.956Z,88.24
2018-06-29T10:09:16.537Z,87.95
2018-06-29T10:10:17.131Z,87.57
2018-06-29T10:11:17.722Z,87.95
2018-06-29T10:12:18.364Z,87.81
2018-06-29T10:13:18.954Z,87.95
2018-06-29T10:14:19.557Z,88.34
2018-06-29T10:15:20.233Z,88.34
2018-06-29T10:16:20.821Z,86.89
2018-06-29T10:17:21.455Z,87.08
2018-06-29T10:18:22.046Z,87.85
2018-06-29T10:19:22.642Z,88.24
2018-06-29T10:20:23.277Z,88.53
2018-06-29T10:21:23.874Z,87.66
2018-06-29T10:22:24.568Z,87.76
2018-06-29T10:23:25.147Z,87.27
2018-06-29T10:24:25.783Z,87.95
2018-06-29T10:25:26.415Z,87.85
2018-06-29T10:26:26.968Z,87.91
2018-06-29T10:27:27.560Z,88.10
2018-06-29T10:28:28.204Z,88.63
2018-06-29T10:29:28.790Z,88.78
2018-06-29T10:30:34.441Z,88.59
2018-06-29T10:31:35.084Z,88.49
2018-06-29T10:32:35.672Z,87.91
2018-06-29T10:33:36.262Z,88.20
2018-06-29T10:34:36.903Z,88.20
2018-06-29T10:35:37.490Z,88.29
2018-06-29T10:36:38.088Z,88.20
2018-06-29T10:37:38.671Z,88.39
2018-06-29T10:38:39.265Z,88.87
2018-06-29T10:39:39.849Z,88.78
2018-06-29T10:40:40.442Z,89.17
2018-06-29T10:41:41.041Z,89.94
2018-06-29T10:42:41.617Z,90.13
2018-06-29T10:43:42.205Z,90.13
2018-06-29T10:44:42.867Z,90.52
2018-06-29T10:45:43.442Z,88.39
2018-06-29T10:46:44.034Z,89.79
2018-06-29T10:47:44.821Z,90.23
2018-06-29T10:48:45.420Z,90.08
2018-06-29T10:49:46.059Z,90.08
2018-06-29T10:50:46.693Z,90.56
2018-06-29T10:51:47.329Z,90.56
2018-06-29T10:52:47.986Z,90.37
2018-06-29T10:53:48.555Z,88.73
2018-06-29T10:54:49.149Z,90.27
2018-06-29T10:55:49.740Z,90.27
2018-06-29T10:56:50.330Z,89.98
2018-06-29T10:57:50.922Z,90.51
2018-06-29T10:58:51.506Z,86.51
2018-06-29T10:59:52.095Z,88.39
2018-06-29T11:00:52.695Z,89.15
2018-06-29T11:01:53.292Z,89.74
2018-06-29T11:02:53.876Z,89.64
2018-06-29T11:03:54.469Z,88.19
2018-06-29T11:04:55.109Z,87.99
2018-06-29T11:05:55.697Z,89.15
2018-06-29T11:06:56.340Z,90.03
2018-06-29T11:07:56.933Z,89.89
2018-06-29T11:08:57.526Z,90.27
2018-06-29T11:09:58.121Z,90.61
2018-06-29T11:10:58.827Z,89.54
2018-06-29T11:11:59.305Z,85.58
2018-06-29T11:12:59.898Z,85.58
2018-06-29T11:14:00.492Z,87.81
2018-06-29T11:15:01.087Z,85.87
2018-06-29T11:16:01.680Z,85.10
2018-06-29T11:17:02.321Z,85.58
2018-06-29T11:18:02.918Z,87.61
2018-06-29T11:19:03.501Z,87.13
2018-06-29T11:20:04.105Z,85.29
2018-06-29T11:21:04.738Z,87.95
2018-06-29T11:22:05.330Z,88.13
2018-06-29T11:23:05.918Z,86.59
2018-06-29T11:24:06.510Z,85.82
2018-06-29T11:25:07.104Z,87.07
2018-06-29T11:26:07.699Z,86.59
2018-06-29T11:27:08.293Z,84.46
2018-06-29T11:28:08.883Z,85.14
2018-06-29T11:29:09.675Z,84.08
2018-06-29T11:30:10.268Z,84.08
2018-06-29T11:31:10.957Z,85.52
2018-06-29T11:32:11.597Z,86.59
2018-06-29T11:33:12.293Z,86.88
2018-06-29T11:34:12.881Z,84.56
2018-06-29T11:35:13.472Z,84.66
2018-06-29T11:36:14.063Z,83.88
2018-06-29T11:37:14.700Z,85.72
2018-06-29T11:38:15.334Z,83.88
2018-06-29T11:39:15.927Z,84.56
2018-06-29T11:40:16.518Z,84.46
2018-06-29T11:41:17.107Z,85.24
2018-06-29T11:42:17.746Z,85.82
2018-06-29T11:43:18.342Z,85.72
2018-06-29T11:44:18.966Z,84.27
2018-06-29T11:45:19.572Z,84.36
2018-06-29T11:46:20.165Z,85.24
2018-06-29T11:47:20.811Z,85.52
2018-06-29T11:48:21.405Z,86.88
2018-06-29T11:49:21.996Z,86.88
2018-06-29T11:50:22.584Z,87.46
2018-06-29T11:51:23.177Z,85.14
2018-06-29T11:52:23.815Z,83.40
2018-06-29T11:53:24.413Z,85.52
2018-06-29T11:54:24.998Z,84.75
2018-06-29T11:55:25.743Z,82.37
2018-06-29T11:56:26.335Z,83.25
2018-06-29T11:57:26.924Z,83.98
2018-06-29T11:58:27.521Z,83.59
2018-06-29T11:59:28.109Z,82.33
2018-06-29T12:00:28.703Z,83.20
2018-06-29T12:01:29.295Z,83.44
2018-06-29T12:02:29.891Z,82.43
2018-06-29T12:03:30.476Z,85.42
2018-06-29T12:04:31.069Z,85.42
2018-06-29T12:05:31.664Z,84.66
2018-06-29T12:06:32.259Z,84.84
2018-06-29T12:07:32.850Z,82.23
2018-06-29T12:08:33.447Z,81.85
2018-06-29T12:09:34.042Z,83.11
2018-06-29T12:10:34.680Z,83.69
2018-06-29T12:11:35.318Z,85.52
2018-06-29T12:12:35.914Z,86.69
2018-06-29T12:13:36.507Z,86.69
2018-06-29T12:14:37.150Z,84.46
2018-06-29T12:15:37.745Z,83.20
2018-06-29T12:16:38.340Z,83.44
2018-06-29T12:17:38.951Z,81.50
2018-06-29T12:18:39.525Z,82.47
2018-06-29T12:19:40.154Z,83.34
2018-06-29T12:20:40.759Z,82.76
2018-06-29T12:21:41.396Z,81.12
2018-06-29T12:22:42.039Z,81.12
2018-06-29T12:23:42.631Z,81.60
2018-06-29T12:24:43.226Z,83.73
2018-06-29T12:25:43.869Z,83.44
2018-06-29T12:26:44.513Z,82.47
2018-06-29T12:27:45.108Z,84.31
2018-06-29T12:28:45.694Z,82.28
2018-06-29T12:29:46.287Z,82.47
2018-06-29T12:30:46.930Z,82.28
2018-06-29T12:31:47.525Z,83.44
2018-06-29T12:32:48.164Z,81.79
2018-06-29T12:33:48.757Z,84.21
2018-06-29T12:34:49.353Z,85.37
2018-06-29T12:35:49.939Z,81.30
2018-06-29T12:36:50.534Z,84.50
2018-06-29T12:38:52.702Z,85.37
2018-06-29T12:40:07.050Z,85.96
2018-06-29T12:41:07.630Z,86.63
2018-06-29T12:42:08.218Z,84.60
2018-06-29T12:43:08.812Z,81.60
2018-06-29T12:44:09.400Z,81.79
2018-06-29T12:45:10.194Z,83.15
2018-06-29T12:46:10.836Z,81.12
2018-06-29T12:47:11.385Z,82.18
2018-06-29T12:48:12.023Z,83.53
2018-06-29T12:49:12.620Z,85.24
2018-06-29T12:50:13.263Z,86.01
2018-06-29T12:51:13.856Z,82.57
2018-06-29T12:52:14.451Z,82.18
2018-06-29T12:53:15.046Z,82.66
2018-06-29T12:54:15.632Z,82.95
2018-06-29T12:55:16.230Z,81.70
2018-06-29T12:56:16.821Z,81.40
2018-06-29T12:57:17.426Z,83.18
2018-06-29T12:58:18.049Z,84.16
2018-06-29T12:59:18.648Z,80.96
2018-06-29T13:00:19.236Z,80.47
2018-06-29T13:01:19.869Z,83.28